Archival Weather

Norman Y Mineta San Jose Intl

San Jose, California (KSJC)

Report from: Saturday, February 24, 2024 3:53 AM PST
Current time: Friday, June 14, 2024 5:27 AM PDT

Current weather – Weather history – Daily summaries
Weather forecast

Temperature10.6°C (51.1°F)
Dew point6.1°C (43.0°F)
Winds Calm
Visibility10 mi. (16.1 km)
Clouds Sky clear
Altimeter30.05 in.Hg (1018 mB)
Relative humidity74 %
Density altitude-529 ft. (-161 m)
Sea-level pressure101.7 kPa (1017 mB, 30.04 in.Hg)
Max temp last 6 hours13.9°C (57.0°F)
Min temp last 6 hours10.0°C (50.0°F)
Remarks Fully automated report
Automated weather observing station with precipitation discriminator
Pressure falling more slowly
Flight conditions Visual Meteorological Conditions
Raw dataKSJC 241153Z AUTO 00000KT 10SM CLR 11/06 A3005 RMK AO2 SLP174 T01060061 10139 20100 56007
An error has occurred. This application may no longer respond until reloaded. Reload 🗙